Time;durP1;ratioP1;P1;durP2;ratioP2;P2;SDS_P1;SDS_P2;PMS_P1;PMS_P2;Temp;Humidity;BMP_temperature;BMP_pressure;BME280_temperature;BME280_humidity;BME280_pressure;Samples;Min_cycle;Max_cycle;Signal;HPM_P1;HPM_P2
2022/11/11 00:01:32;;;;;;;11.63;2.40;;;9.60;97.30;;;;;;5073669;28;20265;-87
2022/11/11 00:03:58;;;;;;;3.30;1.83;;;9.60;97.30;;;;;;5073491;28;20210;-87
2022/11/11 00:06:23;;;;;;;2.63;2.43;;;9.70;97.30;;;;;;5073944;28;20197;-87
2022/11/11 00:08:49;;;;;;;2.50;1.53;;;9.60;97.30;;;;;;5073638;28;20175;-86
2022/11/11 00:11:15;;;;;;;3.60;1.53;;;9.60;97.30;;;;;;5073230;28;20630;-87
2022/11/11 00:13:42;;;;;;;2.30;2.10;;;9.60;97.30;;;;;;5073382;28;20620;-86
2022/11/11 00:16:14;;;;;;;3.57;2.27;;;9.60;97.30;;;;;;5072963;28;20527;-87
2022/11/11 00:27:05;;;;;;;1.83;1.73;;;9.30;97.30;;;;;;5091459;28;20527;-87
2022/11/11 00:29:30;;;;;;;13.00;1.33;;;9.20;97.30;;;;;;5072839;28;20409;-86
2022/11/11 00:35:51;;;;;;;2.73;2.57;;;9.10;97.30;;;;;;5091063;28;20205;-86
2022/11/11 00:37:26;;;;;;;1.57;1.47;;;9.10;97.30;;;;;;5092377;28;20420;-87
2022/11/11 00:39:51;;;;;;;2.40;1.60;;;9.00;97.30;;;;;;5076428;28;20976;-85
2022/11/11 00:42:17;;;;;;;5.23;2.30;;;9.00;97.30;;;;;;5076113;28;20649;-86
2022/11/11 00:44:42;;;;;;;4.17;2.13;;;9.00;97.30;;;;;;5094287;28;20222;-86
2022/11/11 00:52:36;;;;;;;3.30;2.87;;;8.90;97.30;;;;;;5094737;28;20427;-87
2022/11/11 00:55:02;;;;;;;6.03;3.53;;;8.80;97.30;;;;;;5075984;28;20547;-87
2022/11/11 00:57:28;;;;;;;1.50;1.40;;;8.80;97.30;;;;;;5076031;28;20173;-86
2022/11/11 00:59:53;;;;;;;2.57;2.40;;;8.80;97.30;;;;;;5076373;28;20181;-86
2022/11/11 01:02:19;;;;;;;4.83;2.80;;;8.80;97.30;;;;;;5076037;28;20196;-86
2022/11/11 01:04:44;;;;;;;1.90;1.80;;;8.80;97.30;;;;;;5076286;28;20206;-88
2022/11/11 01:07:10;;;;;;;2.27;1.90;;;8.70;97.30;;;;;;5076106;28;20213;-87
2022/11/11 01:09:35;;;;;;;1.97;1.53;;;8.70;97.30;;;;;;5076217;28;20205;-86
2022/11/11 01:12:01;;;;;;;1.93;1.83;;;8.70;97.30;;;;;;5075676;28;20657;-88
2022/11/11 01:14:26;;;;;;;3.47;2.33;;;8.70;97.30;;;;;;5075986;28;20175;-85
2022/11/11 01:16:52;;;;;;;2.83;2.03;;;8.70;97.30;;;;;;5075723;28;20163;-87
2022/11/11 01:19:17;;;;;;;3.90;2.23;;;8.70;97.30;;;;;;5075933;28;20170;-87
2022/11/11 01:21:43;;;;;;;2.67;2.50;;;8.70;97.30;;;;;;5076027;28;20228;-87
2022/11/11 01:24:08;;;;;;;3.70;2.07;;;8.60;97.30;;;;;;5075866;28;20653;-86
2022/11/11 01:26:34;;;;;;;2.20;2.00;;;8.60;97.30;;;;;;5075375;28;20198;-86
2022/11/11 01:28:59;;;;;;;4.87;4.57;;;8.50;97.30;;;;;;5094076;28;20186;-87
2022/11/11 01:31:26;;;;;;;1.63;1.53;;;8.60;97.30;;;;;;5075840;28;20259;-86
2022/11/11 01:33:51;;;;;;;1.93;1.83;;;8.60;97.30;;;;;;5075258;28;20594;-86
2022/11/11 01:36:25;;;;;;;1.27;1.17;;;8.60;97.30;;;;;;5075142;28;20444;-87
2022/11/11 01:38:53;;;;;;;3.50;3.00;;;8.60;97.30;;;;;;5075158;28;20273;-85
2022/11/11 01:41:31;;;;;;;10.13;2.17;;;8.60;97.30;;;;;;5093448;28;20413;-86
2022/11/11 01:43:57;;;;;;;2.30;2.10;;;8.60;97.30;;;;;;5075243;28;20511;-86
2022/11/11 01:46:29;;;;;;;3.07;1.73;;;8.60;97.30;;;;;;5075731;28;20444;-85
2022/11/11 01:49:20;;;;;;;15.17;2.80;;;8.60;97.30;;;;;;5075247;28;20650;-87
2022/11/11 01:51:52;;;;;;;4.17;2.27;;;8.60;97.30;;;;;;5075219;28;20467;-86
2022/11/11 01:54:25;;;;;;;1.70;1.33;;;8.50;97.30;;;;;;5075158;28;20441;-87
2022/11/11 01:56:57;;;;;;;2.03;1.87;;;8.50;97.30;;;;;;5074864;28;20460;-86
2022/11/11 01:59:23;;;;;;;1.27;1.17;;;8.50;97.30;;;;;;5074976;28;20419;-87
2022/11/11 02:01:49;;;;;;;4.20;1.93;;;8.50;97.30;;;;;;5074644;28;20416;-87
2022/11/11 02:07:04;;;;;;;1.60;1.50;;;8.50;97.30;;;;;;5099510;28;20200;-90
2022/11/11 02:09:30;;;;;;;15.67;1.60;;;8.50;97.30;;;;;;5117721;28;20417;-88
2022/11/11 02:14:48;;;;;;;3.23;2.60;;;8.50;97.30;;;;;;5106889;28;20463;-88
2022/11/11 02:17:15;;;;;;;1.53;1.43;;;8.50;97.30;;;;;;5071613;28;20451;-86
2022/11/11 02:19:56;;;;;;;1.40;1.30;;;8.40;97.30;;;;;;5074474;28;20466;-86
2022/11/11 02:22:31;;;;;;;1.50;1.40;;;8.40;97.30;;;;;;5074843;28;20420;-87
2022/11/11 02:24:59;;;;;;;1.47;1.37;;;8.40;97.30;;;;;;5074288;28;20448;-87
2022/11/11 02:27:27;;;;;;;1.30;1.20;;;8.50;97.30;;;;;;5074734;28;20433;-86
2022/11/11 02:29:55;;;;;;;2.53;2.33;;;8.50;97.30;;;;;;5074364;28;20831;-86
2022/11/11 02:32:21;;;;;;;2.00;1.90;;;8.40;97.30;;;;;;5074763;28;20417;-87
2022/11/11 02:34:46;;;;;;;4.50;3.27;;;8.40;97.30;;;;;;5092107;28;20512;-87
2022/11/11 02:37:15;;;;;;;2.73;1.53;;;8.40;97.30;;;;;;5074367;28;20179;-88
2022/11/11 02:39:46;;;;;;;1.43;1.37;;;8.40;97.30;;;;;;5092187;28;20189;-86
2022/11/11 02:42:15;;;;;;;2.23;2.03;;;8.40;97.30;;;;;;5074160;28;20943;-87
2022/11/11 02:44:40;;;;;;;2.70;2.60;;;8.40;97.30;;;;;;5092308;28;20451;-88
2022/11/11 02:47:06;;;;;;;3.67;2.30;;;8.40;97.30;;;;;;5074178;28;20575;-86
2022/11/11 02:49:31;;;;;;;3.50;3.30;;;8.40;97.30;;;;;;5075990;28;20170;-86
2022/11/11 02:51:57;;;;;;;2.30;2.10;;;8.40;97.30;;;;;;5094635;28;20189;-87
2022/11/11 02:54:23;;;;;;;4.47;2.00;;;8.50;97.30;;;;;;5094365;28;20246;-88
2022/11/11 02:57:07;;;;;;;4.70;2.03;;;8.50;97.30;;;;;;5094577;28;20249;-89
2022/11/11 02:59:35;;;;;;;1.37;1.27;;;8.50;97.30;;;;;;5098537;28;20182;-86
2022/11/11 03:02:01;;;;;;;6.33;1.90;;;8.40;97.30;;;;;;5073984;28;20796;-87
2022/11/11 03:04:26;;;;;;;2.83;1.80;;;8.40;97.30;;;;;;5073281;28;20417;-86
2022/11/11 03:06:52;;;;;;;1.70;1.60;;;8.40;97.30;;;;;;5073790;28;20179;-87
2022/11/11 03:09:17;;;;;;;2.60;1.43;;;8.40;97.30;;;;;;5073503;28;20182;-87
2022/11/11 03:11:43;;;;;;;1.53;1.43;;;8.50;97.30;;;;;;5072948;28;20696;-86
2022/11/11 03:14:08;;;;;;;3.27;3.10;;;8.40;97.30;;;;;;5073412;28;20220;-87
2022/11/11 03:19:18;;;;;;;2.63;2.43;;;8.40;97.30;;;;;;5092294;28;20555;-87
2022/11/11 03:21:44;;;;;;;1.93;1.83;;;8.40;97.30;;;;;;5091789;28;20408;-87
2022/11/11 03:24:10;;;;;;;2.30;1.77;;;8.40;97.30;;;;;;5073258;28;20408;-86
2022/11/11 03:26:36;;;;;;;3.13;2.93;;;8.40;97.30;;;;;;5091032;28;20700;-87
2022/11/11 03:29:02;;;;;;;2.70;2.50;;;8.40;97.30;;;;;;5073139;28;20174;-87
2022/11/11 03:31:27;;;;;;;11.73;2.43;;;8.40;97.30;;;;;;5073077;28;20992;-87
2022/11/11 03:33:53;;;;;;;1.50;1.40;;;8.40;97.30;;;;;;5073535;28;20207;-87
2022/11/11 03:36:18;;;;;;;1.80;1.70;;;8.40;97.30;;;;;;5091369;28;20186;-87
2022/11/11 03:38:44;;;;;;;1.93;1.83;;;8.30;97.30;;;;;;5073092;28;20246;-86
2022/11/11 03:41:10;;;;;;;3.43;2.37;;;8.40;97.30;;;;;;5072970;28;20174;-87
2022/11/11 03:43:35;;;;;;;1.77;1.43;;;8.40;97.30;;;;;;5072987;28;20598;-86
2022/11/11 03:46:04;;;;;;;2.23;1.60;;;8.40;97.30;;;;;;5072538;28;20209;-87
2022/11/11 03:48:32;;;;;;;2.30;1.30;;;8.40;97.30;;;;;;5073089;28;20179;-87
2022/11/11 03:50:58;;;;;;;1.97;1.87;;;8.50;97.30;;;;;;5072550;28;20559;-87
2022/11/11 03:53:24;;;;;;;1.57;1.47;;;8.50;97.30;;;;;;5072912;28;20495;-86
2022/11/11 03:55:50;;;;;;;3.90;2.50;;;8.50;97.30;;;;;;5072609;28;20222;-87
2022/11/11 03:58:17;;;;;;;3.53;1.87;;;8.50;97.30;;;;;;5072662;28;20667;-87
2022/11/11 04:00:43;;;;;;;1.63;1.53;;;8.40;97.30;;;;;;5072241;28;20420;-87
2022/11/11 04:11:42;;;;;;;3.30;1.43;;;8.50;97.30;;;;;;5091535;28;20471;-86
2022/11/11 04:16:54;;;;;;;1.47;1.37;;;8.40;97.30;;;;;;5094981;28;20416;-87
2022/11/11 04:22:04;;;;;;;1.50;1.40;;;8.30;97.30;;;;;;5082456;28;20941;-87
2022/11/11 04:27:16;;;;;;;2.50;2.30;;;8.30;97.30;;;;;;5095022;28;20647;-86
2022/11/11 04:29:42;;;;;;;2.20;1.63;;;8.40;97.30;;;;;;5076348;28;20446;-87
2022/11/11 04:34:59;;;;;;;1.40;1.30;;;8.40;97.30;;;;;;5084700;28;20965;-86
2022/11/11 04:37:27;;;;;;;1.70;1.60;;;8.40;97.30;;;;;;5078423;28;20791;-87
2022/11/11 04:42:40;;;;;;;2.40;2.20;;;8.30;97.30;;;;;;5096807;28;20968;-87
2022/11/11 04:45:27;;;;;;;1.53;1.43;;;8.30;97.30;;;;;;5076757;28;20432;-86
2022/11/11 04:48:03;;;;;;;1.40;1.30;;;8.30;97.30;;;;;;5076253;28;20443;-87
2022/11/11 04:50:40;;;;;;;5.70;2.30;;;8.40;97.30;;;;;;5073182;28;20502;-88
2022/11/11 04:53:11;;;;;;;1.43;1.33;;;8.40;97.30;;;;;;5083004;28;20447;-87
2022/11/11 04:58:29;;;;;;;1.03;0.93;;;8.40;97.30;;;;;;5091333;28;20872;-87
2022/11/11 05:00:55;;;;;;;1.60;1.50;;;8.40;97.30;;;;;;5072020;28;20536;-88
2022/11/11 05:03:23;;;;;;;4.17;2.70;;;8.50;97.30;;;;;;5069065;28;20512;-87
2022/11/11 05:08:57;;;;;;;1.20;1.10;;;8.50;97.30;;;;;;5077246;28;20529;-85
2022/11/11 05:11:33;;;;;;;3.07;1.97;;;8.50;97.30;;;;;;5079440;28;20460;-87
2022/11/11 05:22:25;;;;;;;2.27;2.07;;;8.60;97.30;;;;;;5088162;28;20412;-87
2022/11/11 05:27:35;;;;;;;3.70;1.63;;;8.60;97.30;;;;;;5083088;28;20427;-86
2022/11/11 05:30:03;;;;;;;1.87;1.77;;;8.70;97.30;;;;;;5065743;28;20543;-88
2022/11/11 05:32:28;;;;;;;6.87;1.93;;;8.70;97.30;;;;;;5067273;28;20418;-88
2022/11/11 05:34:55;;;;;;;2.50;2.13;;;8.70;97.30;;;;;;5069673;28;20526;-87
2022/11/11 05:37:21;;;;;;;3.43;2.13;;;8.60;97.30;;;;;;5069131;28;20178;-87
2022/11/11 05:39:54;;;;;;;3.83;3.63;;;8.60;97.30;;;;;;5069536;28;20420;-87
2022/11/11 05:42:20;;;;;;;3.07;2.40;;;8.50;97.30;;;;;;5065683;28;21057;-88
2022/11/11 05:44:45;;;;;;;11.23;3.27;;;8.40;97.30;;;;;;5065458;28;20467;-88
2022/11/11 05:47:11;;;;;;;3.47;2.80;;;8.40;97.30;;;;;;5064090;28;20557;-85
2022/11/11 05:49:36;;;;;;;2.70;2.20;;;8.40;97.30;;;;;;5075972;28;20175;-87
2022/11/11 05:52:03;;;;;;;3.33;2.03;;;8.30;97.30;;;;;;5068101;28;20224;-86
2022/11/11 05:54:29;;;;;;;0.90;0.80;;;8.30;97.30;;;;;;5077859;28;20209;-87
2022/11/11 05:56:55;;;;;;;1.37;1.27;;;8.30;97.30;;;;;;5072023;28;20929;-86
2022/11/11 05:59:20;;;;;;;1.40;1.30;;;8.20;97.30;;;;;;5092011;28;20346;-87
2022/11/11 06:02:17;;;;;;;5.63;4.07;;;8.20;97.30;;;;;;5098433;28;20174;-88
2022/11/11 06:04:43;;;;;;;1.80;1.40;;;8.20;97.30;;;;;;5125110;22;20223;-89
2022/11/11 06:07:15;;;;;;;1.30;1.20;;;8.20;97.30;;;;;;5057820;28;20439;-84
2022/11/11 06:10:29;;;;;;;1.70;1.60;;;8.20;97.30;;;;;;5047746;28;20237;-83
2022/11/11 06:26:21;;;;;;;6.60;3.40;;;8.00;97.30;;;;;;5086108;28;20461;-85
2022/11/11 06:29:01;;;;;;;6.27;2.77;;;8.00;97.30;;;;;;5080014;28;20423;-84
2022/11/11 06:31:41;;;;;;;2.40;1.97;;;8.00;97.30;;;;;;5081304;28;20471;-90
2022/11/11 06:34:07;;;;;;;1.60;1.50;;;8.00;97.30;;;;;;5073391;28;20437;-87
2022/11/11 06:36:32;;;;;;;1.83;1.50;;;8.10;97.30;;;;;;5073292;28;20466;-87
2022/11/11 06:38:58;;;;;;;1.10;1.00;;;8.10;97.30;;;;;;5073758;28;20207;-87
2022/11/11 06:41:24;;;;;;;4.20;1.53;;;8.10;97.30;;;;;;5073413;28;20186;-87
2022/11/11 06:43:50;;;;;;;2.80;1.90;;;8.10;97.30;;;;;;5091303;28;20293;-88
2022/11/11 06:46:20;;;;;;;2.07;1.93;;;8.20;97.30;;;;;;5073266;28;20989;-87
2022/11/11 06:48:46;;;;;;;2.23;2.07;;;8.20;97.30;;;;;;5072517;28;20652;-88
2022/11/11 06:51:13;;;;;;;2.30;2.10;;;8.20;97.30;;;;;;5073233;28;20505;-88
2022/11/11 06:53:39;;;;;;;2.03;1.40;;;8.30;97.30;;;;;;5091724;28;20661;-86
2022/11/11 06:56:06;;;;;;;3.40;2.30;;;8.30;97.30;;;;;;5072980;28;20415;-87
2022/11/11 06:58:32;;;;;;;1.50;1.40;;;8.30;97.30;;;;;;5091160;28;20408;-87
2022/11/11 07:00:57;;;;;;;2.73;2.53;;;8.30;97.30;;;;;;5073039;28;20412;-88
2022/11/11 07:03:26;;;;;;;4.90;2.30;;;8.40;97.30;;;;;;5073625;28;20209;-87
2022/11/11 07:05:54;;;;;;;1.93;1.90;;;8.40;97.30;;;;;;5092511;28;20182;-87
2022/11/11 07:08:25;;;;;;;2.40;2.30;;;8.40;97.30;;;;;;5093275;28;20911;-86
2022/11/11 07:10:53;;;;;;;1.67;1.57;;;8.40;97.30;;;;;;5074106;28;21090;-87
2022/11/11 07:13:21;;;;;;;1.57;1.27;;;8.40;97.30;;;;;;5073188;28;20413;-87
2022/11/11 07:15:47;;;;;;;1.93;1.83;;;8.40;97.30;;;;;;5090106;28;20439;-87
2022/11/11 07:18:13;;;;;;;1.40;1.30;;;8.40;97.30;;;;;;5066375;28;20433;-88
2022/11/11 07:20:39;;;;;;;1.60;1.40;;;8.40;97.30;;;;;;5087650;28;20815;-88
2022/11/11 07:23:05;;;;;;;2.10;1.83;;;8.40;97.30;;;;;;5074001;28;20179;-88
2022/11/11 07:25:31;;;;;;;1.27;1.17;;;8.40;97.30;;;;;;5069334;28;20456;-87
2022/11/11 07:27:57;;;;;;;1.87;1.77;;;8.40;97.30;;;;;;5068379;28;20522;-88
2022/11/11 07:30:23;;;;;;;3.67;1.70;;;8.50;97.30;;;;;;5062427;28;20863;-89
2022/11/11 07:32:51;;;;;;;2.83;2.20;;;8.60;97.30;;;;;;5070333;28;20265;-86
2022/11/11 07:35:18;;;;;;;1.33;1.23;;;8.60;97.30;;;;;;5067057;28;20259;-87
2022/11/11 07:37:44;;;;;;;5.57;2.70;;;8.70;97.30;;;;;;5067232;28;20441;-87
2022/11/11 07:40:13;;;;;;;1.97;1.87;;;8.70;97.30;;;;;;5068593;28;20420;-87
2022/11/11 07:42:39;;;;;;;2.00;1.60;;;8.80;97.30;;;;;;5072778;28;20466;-88
2022/11/11 07:45:06;;;;;;;2.23;2.03;;;8.80;97.30;;;;;;5072157;28;20436;-88
2022/11/11 07:47:33;;;;;;;1.20;1.10;;;8.90;97.30;;;;;;5090539;28;20408;-88
2022/11/11 07:49:59;;;;;;;1.63;1.37;;;8.90;97.30;;;;;;5090421;28;20861;-89
2022/11/11 07:52:25;;;;;;;32.40;2.23;;;9.00;97.30;;;;;;5072427;28;20451;-88
2022/11/11 07:54:50;;;;;;;1.40;1.30;;;9.10;97.30;;;;;;5072490;28;20448;-88
2022/11/11 07:57:16;;;;;;;1.80;1.70;;;9.10;97.30;;;;;;5072576;28;20531;-89
2022/11/11 07:59:41;;;;;;;3.57;1.87;;;9.20;97.30;;;;;;5090479;28;20588;-87
2022/11/11 08:02:12;;;;;;;4.97;2.03;;;9.20;97.30;;;;;;5072849;28;20640;-87
2022/11/11 08:04:37;;;;;;;1.60;1.50;;;9.30;97.30;;;;;;5072127;28;20233;-87
2022/11/11 08:07:03;;;;;;;2.10;1.43;;;9.30;97.30;;;;;;5072899;28;20946;-88
2022/11/11 08:09:28;;;;;;;2.00;1.73;;;9.30;97.30;;;;;;5072543;28;20257;-88
2022/11/11 08:14:38;;;;;;;1.27;1.17;;;9.40;97.30;;;;;;5090375;28;20201;-88
2022/11/11 08:17:03;;;;;;;3.90;1.37;;;9.40;97.30;;;;;;5072535;28;20413;-88
2022/11/11 08:19:29;;;;;;;2.60;1.60;;;9.50;97.30;;;;;;5072686;28;20175;-88
2022/11/11 08:21:54;;;;;;;1.00;0.90;;;9.50;97.30;;;;;;5072493;28;20550;-88
2022/11/11 08:24:20;;;;;;;2.07;1.97;;;9.50;97.30;;;;;;5068757;28;20229;-88
2022/11/11 08:26:47;;;;;;;1.73;1.40;;;9.60;97.30;;;;;;5068992;28;20645;-88
2022/11/11 08:29:12;;;;;;;1.53;1.37;;;9.60;97.30;;;;;;5067338;28;20348;-88
2022/11/11 08:31:38;;;;;;;3.67;1.20;;;9.70;97.30;;;;;;5068376;28;20468;-88
2022/11/11 08:34:05;;;;;;;2.10;1.97;;;9.70;97.30;;;;;;5068869;28;20210;-87
2022/11/11 08:36:30;;;;;;;12.07;1.60;;;9.80;97.30;;;;;;5069538;28;20265;-88
2022/11/11 08:38:56;;;;;;;1.83;1.50;;;9.80;97.30;;;;;;5068581;28;20834;-87
2022/11/11 08:41:22;;;;;;;1.00;0.90;;;9.90;97.30;;;;;;5068943;28;20539;-87
2022/11/11 08:43:51;;;;;;;2.50;1.20;;;9.90;97.30;;;;;;5068344;28;20227;-89
2022/11/11 08:46:16;;;;;;;2.13;1.97;;;10.00;97.30;;;;;;5068333;28;20418;-88
2022/11/11 08:48:42;;;;;;;5.23;1.73;;;10.00;97.30;;;;;;5068727;28;20460;-88
2022/11/11 08:51:07;;;;;;;3.37;1.23;;;10.00;97.30;;;;;;5069883;28;20211;-87
2022/11/11 08:53:33;;;;;;;1.33;1.23;;;10.10;97.30;;;;;;5068577;28;20709;-88
2022/11/11 08:56:01;;;;;;;1.23;1.13;;;10.10;97.30;;;;;;5068862;28;20660;-88
2022/11/11 08:58:27;;;;;;;1.10;1.00;;;10.20;97.30;;;;;;5070580;28;20187;-88
2022/11/11 09:00:53;;;;;;;1.47;1.30;;;10.20;97.30;;;;;;5072290;28;21022;-88
2022/11/11 09:03:18;;;;;;;1.63;1.53;;;10.30;97.30;;;;;;5073757;28;20785;-87
2022/11/11 09:05:46;;;;;;;1.20;1.10;;;10.40;97.30;;;;;;5072848;28;20556;-88
2022/11/11 09:08:12;;;;;;;1.13;1.03;;;10.40;97.30;;;;;;5072165;28;20646;-88
2022/11/11 09:10:38;;;;;;;2.80;2.60;;;10.50;97.30;;;;;;5072160;28;20444;-87
2022/11/11 09:13:04;;;;;;;2.50;1.63;;;10.50;97.30;;;;;;5072995;28;20940;-88
2022/11/11 09:15:30;;;;;;;1.73;1.60;;;10.60;97.30;;;;;;5079262;28;20175;-87
2022/11/11 09:17:55;;;;;;;3.90;2.80;;;10.70;97.30;;;;;;5084166;28;20413;-87
2022/11/11 09:20:22;;;;;;;1.47;1.20;;;10.70;97.30;;;;;;5086817;28;20428;-88
2022/11/11 09:22:49;;;;;;;1.87;1.80;;;10.80;97.30;;;;;;5086586;28;20630;-87
2022/11/11 09:25:15;;;;;;;1.00;0.90;;;10.90;97.30;;;;;;5101033;28;20500;-88
2022/11/11 09:27:42;;;;;;;1.20;1.10;;;10.90;97.30;;;;;;5075585;28;20413;-89
2022/11/11 09:30:09;;;;;;;1.67;1.40;;;11.00;97.30;;;;;;5075138;28;20782;-88
2022/11/11 09:32:35;;;;;;;1.47;1.37;;;11.10;97.30;;;;;;5074951;28;20866;-87
2022/11/11 09:35:03;;;;;;;1.17;1.07;;;11.20;97.30;;;;;;5074858;28;20427;-88
2022/11/11 09:37:29;;;;;;;3.63;1.53;;;11.30;97.30;;;;;;5093269;28;20608;-87
2022/11/11 09:39:55;;;;;;;4.37;1.43;;;11.30;97.30;;;;;;5075097;28;21257;-88
2022/11/11 09:42:21;;;;;;;2.10;1.97;;;11.40;97.30;;;;;;5074699;28;20259;-88
2022/11/11 09:45:23;;;;;;;1.10;1.10;;;11.50;97.30;;;;;;5074772;28;20223;-87
2022/11/11 09:47:48;;;;;;;1.43;1.43;;;11.60;97.30;;;;;;5050436;28;20526;-85
2022/11/11 09:50:22;;;;;;;1.23;1.10;;;11.60;97.30;;;;;;5071401;28;21004;-87
2022/11/11 09:53:00;;;;;;;1.00;0.90;;;11.70;97.30;;;;;;5075831;28;20185;-87
2022/11/11 09:55:50;;;;;;;1.10;1.00;;;11.80;97.30;;;;;;5096749;28;20470;-88
2022/11/11 09:58:23;;;;;;;1.20;1.10;;;12.00;97.30;;;;;;5100383;28;20427;-89
2022/11/11 10:00:56;;;;;;;1.10;1.00;;;12.20;97.30;;;;;;5095672;28;20482;-87
2022/11/11 10:03:24;;;;;;;1.90;1.80;;;12.30;97.30;;;;;;5074776;28;20511;-86
2022/11/11 10:06:01;;;;;;;1.87;1.87;;;12.40;97.30;;;;;;5074146;28;20412;-88
2022/11/11 10:08:29;;;;;;;1.40;1.30;;;12.50;97.30;;;;;;5074253;28;20515;-87
2022/11/11 10:10:58;;;;;;;3.90;1.70;;;12.60;97.30;;;;;;5073840;28;20452;-88
2022/11/11 10:13:30;;;;;;;3.33;2.30;;;12.70;97.30;;;;;;5062570;28;20432;-88
2022/11/11 10:16:13;;;;;;;1.67;1.57;;;12.90;97.30;;;;;;5074139;28;20784;-87
2022/11/11 10:18:44;;;;;;;1.67;1.60;;;12.90;97.30;;;;;;5074699;28;20477;-85
2022/11/11 10:21:23;;;;;;;7.83;2.60;;;13.00;97.10;;;;;;5073971;28;20413;-88
2022/11/11 10:23:53;;;;;;;2.20;2.00;;;13.00;97.10;;;;;;5074078;28;20629;-88
2022/11/11 10:26:24;;;;;;;0.97;0.90;;;13.00;97.10;;;;;;5060946;28;20555;-88
2022/11/11 10:28:52;;;;;;;1.93;1.80;;;13.00;96.90;;;;;;5074138;28;20467;-88
2022/11/11 10:31:21;;;;;;;1.57;1.47;;;13.00;96.90;;;;;;5073834;28;20507;-88
2022/11/11 10:34:08;;;;;;;1.17;1.07;;;13.00;97.00;;;;;;5073982;28;20487;-88
2022/11/11 10:36:42;;;;;;;1.27;1.17;;;13.10;96.80;;;;;;5073781;28;20432;-88
2022/11/11 10:39:12;;;;;;;1.57;1.30;;;13.10;96.60;;;;;;5074124;28;20424;-87
2022/11/11 10:41:46;;;;;;;1.87;1.63;;;13.10;96.80;;;;;;5073926;28;20436;-87
2022/11/11 10:44:30;;;;;;;0.90;0.80;;;13.10;96.70;;;;;;5078389;28;20767;-87
2022/11/11 10:47:11;;;;;;;1.83;1.60;;;13.20;96.60;;;;;;5091863;28;20453;-88
2022/11/11 10:49:44;;;;;;;1.43;1.33;;;13.20;96.20;;;;;;5090878;28;20499;-88
2022/11/11 10:52:18;;;;;;;1.20;1.10;;;13.30;96.50;;;;;;5073618;28;20464;-88
2022/11/11 10:54:56;;;;;;;1.07;0.97;;;13.40;96.50;;;;;;5073566;28;20565;-89
2022/11/11 10:57:24;;;;;;;7.40;1.73;;;13.40;95.90;;;;;;5079289;28;20507;-88
2022/11/11 10:59:59;;;;;;;2.23;1.97;;;13.50;95.90;;;;;;5073235;28;20405;-87
2022/11/11 11:02:39;;;;;;;3.17;1.40;;;13.60;95.90;;;;;;5073229;28;20426;-88
2022/11/11 11:05:19;;;;;;;0.97;0.87;;;13.70;95.70;;;;;;5073290;28;20522;-88
2022/11/11 11:07:49;;;;;;;1.60;1.50;;;13.80;95.30;;;;;;5073228;28;20787;-88
2022/11/11 11:10:23;;;;;;;1.33;1.30;;;14.00;94.60;;;;;;5073322;28;20966;-87
2022/11/11 11:12:58;;;;;;;2.53;2.33;;;14.10;94.60;;;;;;5073297;28;20515;-88
2022/11/11 11:15:27;;;;;;;0.90;0.80;;;14.10;94.70;;;;;;5073169;28;20436;-87
2022/11/11 11:18:09;;;;;;;0.90;0.80;;;14.20;93.90;;;;;;5073128;28;20412;-87
2022/11/11 11:20:35;;;;;;;3.77;2.70;;;14.10;94.40;;;;;;5072535;28;20438;-89
2022/11/11 11:23:01;;;;;;;1.30;1.20;;;14.10;93.90;;;;;;5073062;28;20966;-88
2022/11/11 11:25:29;;;;;;;1.00;0.90;;;14.20;94.10;;;;;;5072895;28;20226;-89
2022/11/11 11:28:13;;;;;;;1.00;0.90;;;14.30;93.80;;;;;;5073109;28;20424;-87
2022/11/11 11:30:39;;;;;;;5.43;1.33;;;14.50;93.50;;;;;;5073003;28;20486;-88
2022/11/11 11:33:07;;;;;;;1.63;1.53;;;14.60;93.30;;;;;;5072712;28;20499;-88
2022/11/11 11:35:42;;;;;;;0.93;0.83;;;14.80;93.10;;;;;;5060340;28;20190;-88
2022/11/11 11:38:12;;;;;;;0.90;0.80;;;14.80;92.50;;;;;;5091217;28;20436;-88
2022/11/11 11:40:57;;;;;;;1.10;1.00;;;14.90;91.90;;;;;;5072770;28;20424;-88
2022/11/11 11:43:37;;;;;;;0.97;0.90;;;15.00;91.40;;;;;;5072830;28;20440;-87
2022/11/11 11:46:26;;;;;;;1.43;1.00;;;15.00;90.50;;;;;;5072705;28;20428;-89
2022/11/11 11:49:04;;;;;;;1.03;0.93;;;15.20;91.00;;;;;;5072862;28;20442;-88
2022/11/11 11:51:54;;;;;;;1.00;0.90;;;15.40;91.10;;;;;;5072790;28;20841;-87
2022/11/11 11:55:11;;;;;;;1.50;0.93;;;15.70;90.10;;;;;;5058542;28;20486;-88
2022/11/11 11:57:56;;;;;;;1.20;1.10;;;16.00;88.60;;;;;;5025213;28;20420;-88
2022/11/11 12:00:35;;;;;;;1.23;1.13;;;16.30;87.70;;;;;;5059249;28;20413;-89
2022/11/11 12:03:48;;;;;;;1.00;0.90;;;16.50;87.10;;;;;;5072346;28;20419;-88
2022/11/11 12:06:32;;;;;;;1.60;1.50;;;16.70;86.10;;;;;;5070003;22;20493;-85
2022/11/11 12:09:39;;;;;;;1.20;1.10;;;16.80;86.40;;;;;;5042654;28;20848;-84
2022/11/11 12:12:29;;;;;;;2.03;1.90;;;17.00;86.20;;;;;;5035451;28;20442;-84
2022/11/11 12:15:23;;;;;;;1.10;1.00;;;17.20;86.00;;;;;;5036919;28;20418;-84
2022/11/11 12:18:16;;;;;;;2.30;1.57;;;17.40;84.80;;;;;;5048307;28;20791;-84
2022/11/11 12:20:53;;;;;;;3.83;1.53;;;17.70;84.20;;;;;;5028453;28;20422;-83
2022/11/11 12:23:57;;;;;;;1.23;1.13;;;17.70;83.70;;;;;;5024280;28;20433;-83
2022/11/11 12:26:35;;;;;;;0.90;0.80;;;17.80;83.00;;;;;;5022232;28;20438;-84
2022/11/11 12:29:01;;;;;;;1.07;0.97;;;17.80;82.90;;;;;;5029950;28;20516;-83
2022/11/11 12:31:34;;;;;;;1.23;1.00;;;17.80;82.80;;;;;;5020719;28;20719;-84
2022/11/11 12:34:11;;;;;;;1.70;1.17;;;17.70;82.90;;;;;;5034212;28;20383;-83
2022/11/11 12:36:44;;;;;;;1.20;1.10;;;17.60;83.00;;;;;;5035986;28;20459;-85
2022/11/11 12:39:46;;;;;;;1.07;1.00;;;17.50;83.10;;;;;;5035414;28;20441;-82
2022/11/11 12:42:37;;;;;;;0.93;0.83;;;17.40;83.50;;;;;;5035844;28;20982;-83
2022/11/11 12:45:22;;;;;;;1.83;1.83;;;17.40;83.80;;;;;;5040363;28;20948;-83
2022/11/11 12:48:02;;;;;;;3.50;0.90;;;17.50;83.80;;;;;;5035266;28;20429;-84
2022/11/11 12:50:41;;;;;;;0.93;0.93;;;17.40;83.50;;;;;;5032507;28;20614;-82
2022/11/11 12:53:14;;;;;;;1.00;0.90;;;17.40;83.60;;;;;;5035716;28;20501;-81
2022/11/11 12:56:06;;;;;;;1.00;0.90;;;17.40;83.50;;;;;;5053245;28;20456;-83
2022/11/11 12:58:40;;;;;;;1.17;1.07;;;17.40;83.50;;;;;;5024694;28;20514;-84
2022/11/11 13:01:17;;;;;;;2.77;2.13;;;17.40;83.30;;;;;;5030972;28;20446;-84
2022/11/11 13:03:57;;;;;;;1.50;1.10;;;17.40;83.00;;;;;;5029285;28;20441;-84
2022/11/11 13:06:38;;;;;;;1.20;1.10;;;17.20;83.00;;;;;;5030917;28;20533;-84
2022/11/11 13:09:16;;;;;;;1.03;0.93;;;17.00;83.20;;;;;;5026750;28;20529;-84
2022/11/11 13:12:19;;;;;;;1.20;1.10;;;17.10;83.80;;;;;;5031033;28;20490;-84
2022/11/11 13:14:51;;;;;;;1.00;0.90;;;17.10;83.70;;;;;;5034494;28;20406;-83
2022/11/11 13:17:16;;;;;;;1.10;1.00;;;17.10;83.60;;;;;;5033720;28;20439;-84
2022/11/11 13:20:00;;;;;;;1.10;1.00;;;17.00;83.50;;;;;;5047296;28;20936;-84
2022/11/11 13:22:27;;;;;;;1.57;1.20;;;17.00;84.10;;;;;;5028885;28;20197;-84
2022/11/11 13:24:55;;;;;;;1.10;1.03;;;17.00;84.10;;;;;;5031421;28;20418;-83
2022/11/11 13:27:43;;;;;;;3.77;1.20;;;17.00;83.90;;;;;;5028993;28;21732;-84
2022/11/11 13:30:46;;;;;;;1.73;1.63;;;17.10;83.70;;;;;;5050110;28;20972;-84
2022/11/11 13:33:19;;;;;;;0.80;0.80;;;17.10;83.90;;;;;;5032251;28;20402;-83
2022/11/11 13:35:51;;;;;;;1.30;1.20;;;17.10;83.30;;;;;;5034599;28;20438;-83
2022/11/11 13:38:56;;;;;;;1.17;1.10;;;17.00;83.40;;;;;;5046707;28;20478;-83
2022/11/11 13:41:38;;;;;;;1.63;1.00;;;16.90;83.90;;;;;;5032213;28;20418;-84
2022/11/11 13:44:07;;;;;;;17.57;1.57;;;16.90;84.30;;;;;;5032611;28;20862;-83
2022/11/11 13:46:40;;;;;;;1.43;1.20;;;16.90;83.70;;;;;;5027439;28;20438;-79
2022/11/11 13:49:19;;;;;;;1.00;0.90;;;16.80;83.80;;;;;;5029669;28;20501;-83
2022/11/11 13:51:45;;;;;;;1.00;0.90;;;16.80;83.90;;;;;;5050731;28;20671;-83
2022/11/11 13:54:34;;;;;;;1.03;0.93;;;16.80;84.00;;;;;;5032491;28;20427;-84
2022/11/11 13:57:15;;;;;;;1.83;1.73;;;16.80;84.10;;;;;;5034181;28;20210;-83
2022/11/11 13:59:48;;;;;;;2.30;1.20;;;16.90;84.40;;;;;;5024105;28;20410;-83
2022/11/11 14:02:19;;;;;;;1.20;1.10;;;16.90;84.40;;;;;;5052183;28;20905;-80
2022/11/11 14:05:11;;;;;;;1.43;1.20;;;16.90;84.50;;;;;;5026505;28;20481;-83
2022/11/11 14:07:53;;;;;;;2.00;1.87;;;17.00;84.50;;;;;;5047388;28;20463;-83
2022/11/11 14:10:18;;;;;;;1.07;1.03;;;16.90;84.60;;;;;;5030875;28;20451;-83
2022/11/11 14:12:47;;;;;;;1.10;1.00;;;16.90;84.80;;;;;;5030904;28;20953;-84
2022/11/11 14:15:30;;;;;;;1.10;1.00;;;16.90;84.70;;;;;;5030090;28;20173;-84
2022/11/11 14:17:56;;;;;;;1.30;1.20;;;16.90;85.10;;;;;;5019954;28;21028;-84
2022/11/11 14:20:37;;;;;;;1.30;1.30;;;16.80;85.10;;;;;;5022904;28;20660;-84
2022/11/11 14:23:17;;;;;;;1.33;1.23;;;16.70;85.30;;;;;;5030360;28;20280;-81
2022/11/11 14:25:48;;;;;;;1.63;1.53;;;16.70;85.70;;;;;;5022377;28;20435;-83
2022/11/11 14:28:28;;;;;;;3.00;1.30;;;16.60;86.20;;;;;;5027371;28;20418;-84
2022/11/11 14:30:57;;;;;;;1.40;1.30;;;16.50;86.90;;;;;;5028604;28;20450;-84
2022/11/11 14:33:42;;;;;;;1.97;1.43;;;16.50;87.40;;;;;;5027910;28;20424;-84
2022/11/11 14:36:32;;;;;;;1.10;1.00;;;16.40;87.90;;;;;;5023626;28;20461;-84